Time;durP1;ratioP1;P1;durP2;ratioP2;P2;SDS_P1;SDS_P2;PMS_P1;PMS_P2;Temp;Humidity;BMP_temperature;BMP_pressure;BME280_temperature;BME280_humidity;BME280_pressure;Samples;Min_cycle;Max_cycle;Signal;HPM_P1;HPM_P2
2022/09/16 00:01:52;;;;;;;10.60;5.27;;;;;;;19.90;65.19;99121.16;125330;1098;104172;-75
2022/09/16 00:04:23;;;;;;;15.63;5.53;;;;;;;19.91;65.47;99112.28;124723;1099;104179;-75
2022/09/16 00:06:54;;;;;;;10.60;5.23;;;;;;;19.92;65.44;99116.67;124802;1099;102114;-75
2022/09/16 00:09:25;;;;;;;10.50;5.07;;;;;;;19.92;65.01;99118.47;124779;1099;104258;-75
2022/09/16 00:11:56;;;;;;;10.33;4.60;;;;;;;19.94;65.70;99108.64;124800;1099;104278;-75
2022/09/16 00:14:27;;;;;;;10.17;4.40;;;;;;;19.97;65.42;99113.03;124747;1098;104060;-75
2022/09/16 00:16:58;;;;;;;9.33;4.40;;;;;;;20.00;66.11;99110.29;124732;1099;102840;-75
2022/09/16 00:19:30;;;;;;;7.27;3.80;;;;;;;20.02;65.78;99106.66;124734;1099;102810;-76
2022/09/16 00:22:01;;;;;;;8.77;3.93;;;;;;;20.06;66.26;99095.02;124713;1098;104236;-75
2022/09/16 00:24:33;;;;;;;10.13;4.40;;;;;;;20.09;65.95;99096.75;124748;1099;104255;-75
2022/09/16 00:27:05;;;;;;;13.93;4.40;;;;;;;20.11;65.50;99103.76;124756;1099;104355;-75
2022/09/16 00:29:36;;;;;;;10.17;4.00;;;;;;;20.15;65.74;99098.36;124744;1099;104166;-75
2022/09/16 00:32:07;;;;;;;9.27;3.63;;;;;;;20.17;65.56;99097.41;124718;1099;104191;-75
2022/09/16 00:34:39;;;;;;;8.63;4.00;;;;;;;20.19;66.00;99092.05;124727;1099;104245;-76
2022/09/16 00:37:10;;;;;;;9.60;4.10;;;;;;;20.21;66.58;99092.88;124746;1098;103021;-75
2022/09/16 00:39:41;;;;;;;7.60;4.23;;;;;;;20.22;66.72;99097.30;124585;1099;104156;-75
2022/09/16 00:42:13;;;;;;;9.27;3.73;;;;;;;20.23;66.27;99094.59;124759;1099;104306;-75
2022/09/16 00:45:04;;;;;;;5.50;3.43;;;;;;;20.24;66.24;99093.69;124683;1099;104277;-75
2022/09/16 00:47:41;;;;;;;10.43;3.57;;;;;;;20.27;65.92;99098.03;124716;1098;104364;-75
2022/09/16 00:50:17;;;;;;;7.87;3.30;;;;;;;20.32;66.40;99097.91;124598;1099;104188;-74
2022/09/16 00:52:50;;;;;;;9.27;3.13;;;;;;;20.37;66.44;99094.23;124692;1099;104217;-75
2022/09/16 00:55:26;;;;;;;6.20;3.80;;;;;;;20.43;66.83;99090.53;124754;1099;102785;-75
2022/09/16 00:58:02;;;;;;;7.10;3.33;;;;;;;20.45;66.35;99092.22;124738;1098;104153;-75
2022/09/16 01:00:33;;;;;;;7.27;3.27;;;;;;;20.48;66.09;99089.47;124746;1098;104245;-75
2022/09/16 01:03:06;;;;;;;9.37;3.57;;;;;;;20.53;66.62;99078.69;124712;1099;102766;-75
2022/09/16 01:05:38;;;;;;;6.63;3.00;;;;;;;20.60;66.73;99076.72;124753;1099;104412;-75
2022/09/16 01:08:09;;;;;;;8.10;3.20;;;;;;;20.63;65.79;99073.97;124690;1099;104160;-75
2022/09/16 01:10:42;;;;;;;9.07;3.50;;;;;;;20.68;66.41;99076.53;124643;1099;104223;-75
2022/09/16 01:13:16;;;;;;;8.08;3.60;;;;;;;20.71;65.71;99082.67;124728;1099;104232;-74
2022/09/16 01:15:58;;;;;;;7.45;3.42;;;;;;;20.75;66.00;99083.45;124741;1099;102912;-75
2022/09/16 01:18:38;;;;;;;7.40;3.20;;;;;;;20.80;66.04;99087.75;124678;1099;104294;-75
2022/09/16 01:21:22;;;;;;;6.23;3.00;;;;;;;20.87;66.18;99085.77;124722;1099;104277;-75
2022/09/16 01:24:15;;;;;;;5.77;3.20;;;;;;;20.91;66.41;99086.55;124676;1099;104177;-75
2022/09/16 01:27:04;;;;;;;5.33;3.20;;;;;;;20.96;66.42;99082.84;124647;1099;104233;-75
2022/09/16 01:30:03;;;;;;;9.87;2.90;;;;;;;21.01;66.45;99085.37;124719;1099;102817;-75
2022/09/16 01:32:44;;;;;;;6.53;3.30;;;;;;;21.04;65.40;99085.28;124734;1099;109319;-75
2022/09/16 01:35:27;;;;;;;8.90;3.27;;;;;;;21.05;66.70;99079.03;124645;1098;104277;-75
2022/09/16 01:38:10;;;;;;;10.57;3.30;;;;;;;21.06;65.87;99071.90;124684;1099;104245;-75
2022/09/16 01:40:52;;;;;;;7.35;3.35;;;;;;;21.06;65.71;99070.09;124687;1098;104204;-75
2022/09/16 01:43:31;;;;;;;7.90;3.30;;;;;;;21.08;66.10;99080.72;124709;1099;104166;-75
2022/09/16 01:46:09;;;;;;;6.30;3.40;;;;;;;21.09;65.26;99080.67;124648;1099;102283;-75
2022/09/16 01:48:46;;;;;;;10.13;3.27;;;;;;;21.10;66.04;99087.77;124671;1098;104191;-76
2022/09/16 01:51:25;;;;;;;9.83;2.90;;;;;;;21.13;65.36;99084.11;124689;1098;104245;-75
2022/09/16 01:54:03;;;;;;;6.13;3.10;;;;;;;21.14;66.14;99088.53;124697;1099;104162;-75
2022/09/16 01:56:41;;;;;;;7.50;2.90;;;;;;;21.14;65.54;99091.20;124734;1099;104629;-75
2022/09/16 01:59:18;;;;;;;8.10;3.00;;;;;;;21.17;65.40;99083.97;124719;1099;104242;-75
2022/09/16 02:01:56;;;;;;;6.27;2.80;;;;;;;21.17;65.40;99089.30;124679;1099;104176;-75
2022/09/16 02:04:33;;;;;;;8.47;3.30;;;;;;;21.19;65.44;99083.92;124666;1099;102765;-76
2022/09/16 02:07:09;;;;;;;9.40;3.20;;;;;;;21.20;65.52;99083.02;124789;1099;102756;-75
2022/09/16 02:09:46;;;;;;;6.13;3.13;;;;;;;21.21;65.25;99076.77;124731;1098;104342;-75
2022/09/16 02:12:22;;;;;;;8.27;3.43;;;;;;;21.21;65.53;99076.77;124242;1099;104313;-76
2022/09/16 02:14:55;;;;;;;8.57;2.90;;;;;;;21.22;65.54;99083.83;124766;1099;104105;-75
2022/09/16 02:17:30;;;;;;;8.10;3.33;;;;;;;21.23;65.88;99080.25;124763;1099;104262;-75
2022/09/16 02:20:06;;;;;;;6.93;2.93;;;;;;;21.24;66.11;99075.78;124750;1099;104261;-75
2022/09/16 02:22:43;;;;;;;6.37;3.10;;;;;;;21.24;65.25;99081.12;124799;1099;102993;-76
2022/09/16 02:25:18;;;;;;;8.67;3.60;;;;;;;21.24;65.13;99081.12;124706;1098;104176;-76
2022/09/16 02:27:52;;;;;;;10.57;3.53;;;;;;;21.23;65.13;99090.92;124730;1099;104235;-76
2022/09/16 02:30:24;;;;;;;6.40;2.93;;;;;;;21.23;65.08;99093.59;124745;1099;104245;-76
2022/09/16 02:32:59;;;;;;;7.00;3.20;;;;;;;21.24;65.81;99091.79;124707;1099;104214;-75
2022/09/16 02:35:33;;;;;;;8.37;2.93;;;;;;;21.24;65.25;99091.79;124650;1099;104233;-76
2022/09/16 02:38:09;;;;;;;10.35;3.22;;;;;;;21.25;65.73;99090.88;124699;1099;102787;-76
2022/09/16 02:40:46;;;;;;;8.17;3.13;;;;;;;21.26;65.24;99093.50;124765;1099;102784;-76
2022/09/16 02:43:18;;;;;;;11.90;3.23;;;;;;;21.24;64.95;99084.68;124712;1099;104232;-75
2022/09/16 02:45:56;;;;;;;10.90;2.90;;;;;;;21.26;66.04;99080.16;124757;1098;104162;-76
2022/09/16 02:48:36;;;;;;;8.57;2.77;;;;;;;21.26;65.27;99077.49;124731;1099;104210;-77
2022/09/16 02:51:17;;;;;;;7.57;3.13;;;;;;;21.27;65.44;99073.02;124717;1099;104236;-76
2022/09/16 02:53:53;;;;;;;8.00;3.10;;;;;;;21.28;65.07;99072.11;124749;1099;104288;-76
2022/09/16 02:56:29;;;;;;;7.87;3.57;;;;;;;21.29;65.69;99074.73;124751;1099;104277;-76
2022/09/16 02:59:01;;;;;;;7.80;2.90;;;;;;;21.29;65.57;99077.40;124704;1099;104291;-77
2022/09/16 03:01:36;;;;;;;11.07;3.07;;;;;;;21.29;64.60;99077.40;124728;1099;104247;-76
2022/09/16 03:04:08;;;;;;;8.13;2.93;;;;;;;21.31;64.98;99094.22;124678;1099;104242;-76
2022/09/16 03:06:39;;;;;;;7.07;3.67;;;;;;;21.31;64.81;99088.89;124698;1098;104283;-76
2022/09/16 03:09:13;;;;;;;12.83;3.20;;;;;;;21.33;64.68;99091.50;124758;1098;104179;-76
2022/09/16 03:12:13;;;;;;;10.50;3.00;;;;;;;21.33;64.36;99086.17;124726;1099;102870;-76
2022/09/16 03:15:26;;;;;;;8.17;2.90;;;;;;;21.32;64.46;99076.45;124216;1099;118547;-76
2022/09/16 03:18:28;;;;;;;10.43;3.60;;;;;;;21.31;65.54;99088.89;124707;1099;104227;-76
2022/09/16 03:21:04;;;;;;;10.23;2.90;;;;;;;21.31;64.66;99080.02;124661;1099;104105;-76
2022/09/16 03:23:46;;;;;;;10.20;2.97;;;;;;;21.31;64.94;99078.22;124732;1099;102778;-76
2022/09/16 03:26:28;;;;;;;5.83;2.83;;;;;;;21.32;65.39;99077.30;124736;1099;104235;-76
2022/09/16 03:29:11;;;;;;;5.53;3.10;;;;;;;21.31;64.16;99075.55;124721;1099;104230;-76
2022/09/16 03:31:52;;;;;;;8.70;3.17;;;;;;;21.31;64.48;99082.69;125265;1099;104156;-76
2022/09/16 03:34:30;;;;;;;8.53;3.00;;;;;;;21.29;64.40;99079.20;124685;1099;104241;-76
2022/09/16 03:37:06;;;;;;;9.70;2.93;;;;;;;21.27;64.48;99076.59;124757;1098;104259;-76
2022/09/16 03:39:39;;;;;;;7.50;3.23;;;;;;;21.26;64.22;99084.63;124760;1099;104162;-77
2022/09/16 03:42:12;;;;;;;8.33;3.27;;;;;;;21.23;64.27;99090.06;124780;1098;102791;-76
2022/09/16 03:44:42;;;;;;;;;;;;;;;21.19;64.12;99098.16;124776;1099;104214;-76
2022/09/16 03:47:13;;;;;;;11.17;3.43;;;;;;;21.18;65.13;99098.20;124772;1099;104194;-76
2022/09/16 03:49:45;;;;;;;8.67;3.20;;;;;;;21.17;64.89;99101.78;124735;1099;104262;-76
2022/09/16 03:52:17;;;;;;;10.53;3.03;;;;;;;21.15;64.86;99099.16;124808;1099;102161;-75
2022/09/16 03:54:49;;;;;;;17.40;3.90;;;;;;;21.13;64.67;99111.67;124749;1099;104689;-76
2022/09/16 03:57:20;;;;;;;9.27;3.27;;;;;;;21.12;64.50;99117.92;124718;1099;104528;-76
2022/09/16 03:59:52;;;;;;;8.03;3.13;;;;;;;21.12;64.62;99119.72;124723;1098;104159;-76
2022/09/16 04:02:23;;;;;;;6.67;2.80;;;;;;;21.11;65.32;99124.16;124773;1098;102493;-76
2022/09/16 04:04:54;;;;;;;14.47;3.47;;;;;;;21.11;64.86;99125.97;124747;1099;103287;-76
2022/09/16 04:07:25;;;;;;;14.67;3.60;;;;;;;21.09;65.51;99114.48;124710;1099;104185;-76
2022/09/16 04:09:56;;;;;;;14.00;3.43;;;;;;;21.07;64.19;99122.52;124770;1099;102817;-76
2022/09/16 04:12:28;;;;;;;12.80;3.73;;;;;;;21.06;64.62;99120.77;124764;1099;104176;-75
2022/09/16 04:14:59;;;;;;;9.17;3.57;;;;;;;21.05;64.13;99119.04;124657;1099;104241;-76
2022/09/16 04:17:33;;;;;;;11.83;3.80;;;;;;;21.04;63.91;99122.61;124745;1099;104166;-76
2022/09/16 04:20:03;;;;;;;;;;;;;;;20.95;64.40;99109.55;124740;1099;104289;-76
2022/09/16 04:22:35;;;;;;;6.43;3.03;;;;;;;20.99;64.95;99121.88;124771;1099;102066;-76
2022/09/16 04:25:07;;;;;;;11.20;3.27;;;;;;;20.98;64.58;99120.12;124665;1099;104235;-75
2022/09/16 04:27:39;;;;;;;12.37;3.50;;;;;;;20.95;64.92;99120.21;124779;1099;104165;-76
2022/09/16 04:30:13;;;;;;;15.37;3.43;;;;;;;20.91;65.27;99119.44;124764;1098;104214;-76
2022/09/16 04:32:44;;;;;;;9.57;3.90;;;;;;;20.88;65.45;99121.29;124728;1099;104408;-76
2022/09/16 04:35:18;;;;;;;11.57;3.67;;;;;;;20.80;65.30;99125.07;124679;1098;102785;-76
2022/09/16 04:37:48;;;;;;;;;;;;;;;20.84;64.97;99128.52;124715;1099;104163;-76
2022/09/16 04:40:19;;;;;;;15.60;4.60;;;;;;;20.85;64.96;99129.38;124667;1098;104245;-76
2022/09/16 04:42:53;;;;;;;11.67;3.90;;;;;;;20.86;65.31;99123.14;124785;1099;104214;-76
2022/09/16 04:45:26;;;;;;;14.57;4.57;;;;;;;20.88;65.90;99129.29;124771;1099;104166;-76
2022/09/16 04:47:59;;;;;;;15.67;5.17;;;;;;;20.87;65.95;99131.09;124750;1099;104774;-76
2022/09/16 04:50:30;;;;;;;13.47;4.87;;;;;;;20.90;65.54;99138.14;124771;1099;104363;-75
2022/09/16 04:53:02;;;;;;;21.53;4.60;;;;;;;20.92;66.20;99142.48;124771;1099;104234;-76
2022/09/16 04:55:34;;;;;;;15.87;4.13;;;;;;;20.97;65.95;99142.36;124756;1099;102865;-76
2022/09/16 04:58:06;;;;;;;17.47;4.67;;;;;;;21.03;66.16;99150.19;124639;1099;104191;-76
2022/09/16 05:00:37;;;;;;;12.47;3.90;;;;;;;21.07;66.21;99157.19;124655;1098;102258;-76
2022/09/16 05:03:08;;;;;;;11.13;3.73;;;;;;;21.13;65.13;99149.02;124788;1099;104172;-76
2022/09/16 05:05:39;;;;;;;12.90;4.17;;;;;;;21.18;65.73;99151.55;124762;1098;104188;-76
2022/09/16 05:08:10;;;;;;;10.17;3.87;;;;;;;21.21;66.26;99151.46;124773;1098;102086;-76
2022/09/16 05:10:41;;;;;;;17.57;3.93;;;;;;;21.26;65.73;99153.99;124767;1099;104828;-76
2022/09/16 05:13:12;;;;;;;15.17;4.00;;;;;;;21.30;65.31;99155.63;124720;1099;104277;-76
2022/09/16 05:15:43;;;;;;;12.53;4.23;;;;;;;21.34;65.28;99151.96;124742;1099;104743;-76
2022/09/16 05:18:15;;;;;;;11.53;3.90;;;;;;;21.38;65.95;99158.97;124823;1099;104170;-74
2022/09/16 05:20:50;;;;;;;19.53;4.67;;;;;;;21.41;65.32;99165.98;124761;1099;104194;-76
2022/09/16 05:23:23;;;;;;;13.63;4.30;;;;;;;21.44;65.67;99147.21;124682;1099;102244;-75
2022/09/16 05:25:57;;;;;;;10.13;3.93;;;;;;;21.47;65.24;99153.35;124774;1099;104034;-76
2022/09/16 05:28:29;;;;;;;12.13;4.10;;;;;;;21.50;65.85;99165.73;124888;1099;102318;-76
2022/09/16 05:31:17;;;;;;;10.57;4.07;;;;;;;21.53;64.87;99178.99;124711;1099;102175;-77
2022/09/16 05:33:54;;;;;;;13.43;4.67;;;;;;;21.54;65.53;99176.27;124701;1099;104239;-77
2022/09/16 05:36:27;;;;;;;14.73;4.83;;;;;;;21.54;65.06;99175.41;124756;1099;104188;-76
2022/09/16 05:38:59;;;;;;;15.87;4.67;;;;;;;21.49;65.53;99158.67;124743;1099;108067;-76
2022/09/16 05:41:31;;;;;;;14.17;4.23;;;;;;;21.61;65.73;99170.75;125612;1099;104236;-77
2022/09/16 05:44:05;;;;;;;15.37;4.23;;;;;;;21.64;65.13;99181.33;124781;1099;104207;-77
2022/09/16 05:47:06;;;;;;;12.67;4.00;;;;;;;21.67;65.86;99179.44;125008;1099;101869;-77
2022/09/16 05:49:37;;;;;;;13.53;4.50;;;;;;;21.72;65.55;99185.53;125628;1097;118059;-78
2022/09/16 05:52:10;;;;;;;11.77;4.70;;;;;;;21.77;65.59;99187.16;125658;1099;104197;-76
2022/09/16 05:54:41;;;;;;;15.13;4.50;;;;;;;21.78;65.17;99187.11;125053;1099;102778;-77
2022/09/16 05:57:23;;;;;;;13.30;4.17;;;;;;;21.79;65.65;99191.55;125950;1099;104165;-77
2022/09/16 05:59:55;;;;;;;15.90;4.33;;;;;;;21.83;64.91;99194.98;124826;1099;104229;-77
2022/09/16 06:02:28;;;;;;;15.53;5.13;;;;;;;21.90;64.89;99188.53;124810;1099;102353;-77
2022/09/16 06:05:02;;;;;;;15.63;4.62;;;;;;;21.97;65.43;99191.88;125624;1098;104173;-77
2022/09/16 06:07:56;;;;;;;;;;;;;;;21.97;64.78;99191.88;125802;1099;104648;-78
2022/09/16 06:10:30;;;;;;;16.37;4.67;;;;;;;22.02;65.30;99188.15;125581;1099;111996;-77
2022/09/16 06:13:04;;;;;;;18.17;4.70;;;;;;;22.06;65.61;99202.27;125089;1099;104635;-77
2022/09/16 06:15:35;;;;;;;;;;;;;;;22.04;64.69;99206.80;125108;1099;104160;-77
2022/09/16 06:18:10;;;;;;;14.87;4.43;;;;;;;22.02;65.49;99201.50;124804;1099;104235;-77
2022/09/16 06:20:43;;;;;;;12.87;5.03;;;;;;;22.04;65.59;99214.81;124808;1099;102431;-77
2022/09/16 06:23:29;;;;;;;16.40;4.83;;;;;;;22.07;65.06;99217.38;124715;1099;102530;-75
2022/09/16 06:26:08;;;;;;;14.40;5.00;;;;;;;22.06;65.21;99216.52;124882;1099;104297;-75
2022/09/16 06:28:47;;;;;;;11.77;4.30;;;;;;;22.05;65.28;99213.89;125001;1099;102188;-76
2022/09/16 06:31:22;;;;;;;13.23;4.50;;;;;;;22.07;64.83;99230.73;125137;1099;104255;-75
2022/09/16 06:34:03;;;;;;;15.57;4.80;;;;;;;22.07;65.27;99222.72;124902;1099;102896;-76
2022/09/16 06:36:51;;;;;;;12.53;4.37;;;;;;;22.15;64.53;99241.18;125696;1098;104229;-76
2022/09/16 06:39:23;;;;;;;15.73;4.63;;;;;;;22.16;64.12;99234.89;125703;1099;101825;-76
2022/09/16 06:42:30;;;;;;;16.43;4.23;;;;;;;22.19;64.37;99246.37;125539;1098;104249;-76
2022/09/16 06:45:19;;;;;;;14.53;4.43;;;;;;;22.23;64.04;99233.78;125673;1099;102350;-77
2022/09/16 06:47:52;;;;;;;12.97;4.03;;;;;;;22.24;64.08;99233.73;125671;1099;104313;-77
2022/09/16 06:50:26;;;;;;;12.97;3.97;;;;;;;22.28;64.43;99241.65;125582;1099;104165;-77
2022/09/16 06:53:04;;;;;;;13.17;4.23;;;;;;;22.32;64.58;99238.00;125236;1099;102071;-77
2022/09/16 06:55:46;;;;;;;8.37;4.13;;;;;;;22.36;64.44;99243.20;125654;1099;104344;-77
2022/09/16 06:58:23;;;;;;;12.47;4.37;;;;;;;22.44;64.20;99245.62;125135;1099;104166;-76
2022/09/16 07:00:59;;;;;;;17.87;4.73;;;;;;;22.49;64.00;99251.67;125844;1099;104162;-76
2022/09/16 07:03:34;;;;;;;11.67;3.90;;;;;;;22.54;63.86;99249.71;125076;1099;104252;-76
2022/09/16 07:08:59;;;;;;;12.77;4.50;;;;;;;22.63;63.87;99237.84;125598;1099;104278;-77
2022/09/16 07:11:32;;;;;;;17.73;4.57;;;;;;;22.70;64.27;99244.72;125612;1099;104210;-76
2022/09/16 07:14:09;;;;;;;14.30;4.30;;;;;;;22.74;64.13;99246.37;125628;1099;104222;-76
2022/09/16 07:16:51;;;;;;;15.40;4.50;;;;;;;22.77;63.51;99254.28;125603;1099;104255;-76
2022/09/16 07:19:32;;;;;;;12.87;4.20;;;;;;;22.77;63.96;99256.09;125083;1099;102213;-76
2022/09/16 07:22:10;;;;;;;14.90;4.73;;;;;;;22.73;64.27;99251.77;125620;1099;104261;-77
2022/09/16 07:24:46;;;;;;;17.10;4.87;;;;;;;22.77;64.02;99262.31;125633;1099;104163;-76
2022/09/16 07:27:25;;;;;;;19.03;4.60;;;;;;;22.77;63.99;99262.31;125104;1102;104343;-75
2022/09/16 07:30:12;;;;;;;17.47;4.47;;;;;;;22.79;63.88;99273.81;124374;1099;103574;-76
2022/09/16 07:32:50;;;;;;;14.70;4.37;;;;;;;22.81;64.19;99284.46;125596;1098;104181;-77
2022/09/16 07:35:22;;;;;;;20.57;5.00;;;;;;;22.82;64.21;99280.88;125537;1099;102448;-76
2022/09/16 07:37:57;;;;;;;17.97;4.80;;;;;;;22.84;63.84;99278.14;124999;1099;104172;-77
2022/09/16 07:40:34;;;;;;;13.83;4.20;;;;;;;22.84;64.02;99287.03;125501;1099;102816;-77
2022/09/16 07:43:07;;;;;;;18.05;4.70;;;;;;;22.85;63.34;99291.47;125596;1099;102490;-75
2022/09/16 07:45:46;;;;;;;16.53;4.70;;;;;;;22.87;63.72;99284.25;125079;1102;104271;-76
2022/09/16 07:48:17;;;;;;;16.20;4.70;;;;;;;22.91;64.27;99296.61;125620;1099;103054;-76
2022/09/16 07:51:05;;;;;;;10.40;3.70;;;;;;;22.88;64.08;99296.70;125153;1099;104182;-76
2022/09/16 07:56:55;;;;;;;16.07;3.93;;;;;;;22.83;63.84;99309.38;124984;1099;102259;-77
2022/09/16 08:00:11;;;;;;;13.30;3.85;;;;;;;22.84;63.85;99305.75;124961;1099;104217;-76
2022/09/16 08:02:47;;;;;;;7.53;3.30;;;;;;;22.85;63.60;99301.30;124628;1099;104223;-77
2022/09/16 08:05:34;;;;;;;11.10;3.77;;;;;;;22.90;63.79;99302.87;125608;1098;104290;-77
2022/09/16 08:08:11;;;;;;;11.47;3.20;;;;;;;22.95;63.58;99298.27;125175;1099;101968;-77
2022/09/16 08:13:47;;;;;;;5.40;2.75;;;;;;;23.09;63.06;99288.89;125104;1099;104160;-78
2022/09/16 08:16:22;;;;;;;;;;;;;;;23.15;63.18;99302.95;125671;1099;104165;-77
2022/09/16 08:19:01;;;;;;;6.87;3.00;;;;;;;23.27;63.05;99295.41;125545;1099;104205;-75
2022/09/16 08:21:44;;;;;;;6.50;2.93;;;;;;;23.36;62.95;99302.22;124798;1099;104134;-76
2022/09/16 08:24:27;;;;;;;5.70;2.60;;;;;;;23.44;62.81;99300.16;125126;1099;102909;-75
2022/09/16 08:27:00;;;;;;;4.57;2.67;;;;;;;23.47;62.23;99300.05;125090;1099;104307;-74
2022/09/16 08:30:02;;;;;;;;;;;;;;;;;;;;;
2022/09/16 08:35:32;;;;;;;7.83;3.00;;;;;;;23.64;62.18;99297.63;125172;1099;104214;-76
2022/09/16 08:38:21;;;;;;;6.80;2.90;;;;;;;23.70;62.61;99299.20;125675;1099;104179;-77
2022/09/16 08:41:26;;;;;;;7.10;3.07;;;;;;;23.70;62.21;99307.23;125744;1098;103506;-77
2022/09/16 08:44:17;;;;;;;6.27;3.10;;;;;;;23.61;61.90;99305.77;126472;1099;101940;-78
2022/09/16 08:46:59;;;;;;;6.00;2.60;;;;;;;23.54;61.82;99317.62;125671;1099;104076;-78
2022/09/16 08:49:52;;;;;;;7.97;2.63;;;;;;;23.51;61.62;99307.02;125770;1099;104163;-78
2022/09/16 08:52:47;;;;;;;4.10;2.57;;;;;;;23.58;61.74;99310.38;126364;1098;104140;-79
2022/09/16 08:58:56;;;;;;;5.70;2.60;;;;;;;23.61;61.76;99311.12;125607;1099;104236;-75
2022/09/16 09:01:42;;;;;;;7.00;2.90;;;;;;;23.81;61.73;99298.77;125552;1099;104160;-76
2022/09/16 09:04:29;;;;;;;7.23;3.07;;;;;;;23.94;61.27;99302.78;125553;1099;104208;-75
2022/09/16 09:08:01;;;;;;;6.87;3.47;;;;;;;24.01;60.76;99317.70;125672;1099;104261;-76
2022/09/16 09:11:05;;;;;;;2.60;2.40;;;;;;;24.09;59.84;99325.44;125608;1099;104169;-75
2022/09/16 09:14:03;;;;;;;5.03;2.50;;;;;;;24.14;60.21;99326.12;125631;1099;102203;-75
2022/09/16 09:16:58;;;;;;;6.77;3.00;;;;;;;24.26;59.59;99321.20;125037;1099;106921;-78
2022/09/16 09:22:57;;;;;;;9.60;2.63;;;;;;;24.39;58.80;99334.07;125496;1099;104188;-78
2022/09/16 09:26:04;;;;;;;7.20;3.00;;;;;;;24.51;59.17;99324.67;125743;1099;104178;-78
2022/09/16 09:32:58;;;;;;;7.17;2.87;;;;;;;24.75;58.81;99332.68;125662;1099;104313;-78
2022/09/16 09:36:09;;;;;;;3.80;2.60;;;;;;;24.77;57.83;99333.48;125617;1099;104176;-77
2022/09/16 09:39:00;;;;;;;10.70;2.67;;;;;;;24.86;57.99;99329.55;125763;1099;104163;-77
2022/09/16 09:42:20;;;;;;;5.13;2.50;;;;;;;24.91;57.61;99332.91;125648;1099;102548;-77
2022/09/16 09:45:03;;;;;;;5.40;2.70;;;;;;;25.01;57.88;99336.96;125262;1099;102605;-78
2022/09/16 09:48:08;;;;;;;;;;;;;;;;;;;;;
2022/09/16 09:50:45;;;;;;;3.97;2.70;;;;;;;25.13;56.63;99346.28;126902;1098;102290;-78
2022/09/16 09:53:32;;;;;;;4.97;2.50;;;;;;;25.29;56.46;99351.89;125550;1099;104188;-78
2022/09/16 09:56:21;;;;;;;5.27;2.90;;;;;;;25.51;56.77;99357.22;125648;1099;102688;-78
2022/09/16 09:59:02;;;;;;;2.97;2.40;;;;;;;25.66;55.86;99361.02;125723;1099;104192;-78
2022/09/16 10:01:42;;;;;;;4.53;2.50;;;;;;;25.62;56.00;99375.55;125077;1099;104319;-77
2022/09/16 10:04:30;;;;;;;8.33;2.43;;;;;;;25.60;56.04;99374.72;125668;1099;104172;-77
2022/09/16 10:07:07;;;;;;;5.40;2.65;;;;;;;25.45;55.43;99369.09;125556;1098;102127;-76
2022/09/16 10:09:53;;;;;;;8.60;2.40;;;;;;;25.47;55.19;99366.34;124831;1099;103320;-77
2022/09/16 10:12:37;;;;;;;4.50;2.40;;;;;;;25.44;55.23;99367.33;125007;1099;104229;-76
2022/09/16 10:15:38;;;;;;;3.23;2.30;;;;;;;25.53;55.61;99373.27;125546;1099;102208;-79
2022/09/16 10:18:32;;;;;;;3.20;2.40;;;;;;;25.72;55.61;99366.12;125621;1099;103203;-78
2022/09/16 10:21:13;;;;;;;4.93;2.30;;;;;;;25.82;54.37;99372.83;126769;1098;102262;-78
2022/09/16 10:23:59;;;;;;;4.87;2.30;;;;;;;25.85;55.00;99377.17;125633;1099;102746;-78
2022/09/16 10:26:47;;;;;;;6.13;2.20;;;;;;;25.97;54.34;99391.88;125750;1099;104197;-78
2022/09/16 10:29:32;;;;;;;4.57;2.33;;;;;;;25.77;53.76;99385.61;125663;1099;104166;-78
2022/09/16 10:32:09;;;;;;;3.93;2.50;;;;;;;25.71;53.58;99385.88;125622;1099;102605;-78
2022/09/16 10:34:42;;;;;;;6.60;2.17;;;;;;;25.67;53.81;99383.41;125590;1099;102249;-78
2022/09/16 10:37:21;;;;;;;4.30;2.30;;;;;;;25.46;53.07;99391.44;125642;1099;104219;-78
2022/09/16 10:39:56;;;;;;;6.40;2.40;;;;;;;25.29;53.27;99398.42;124940;1099;104433;-78
2022/09/16 10:42:29;;;;;;;3.55;2.25;;;;;;;25.30;53.32;99396.59;124754;1099;104374;-77
2022/09/16 10:45:25;;;;;;;7.13;2.10;;;;;;;25.36;53.44;99393.66;124922;1099;102502;-79
2022/09/16 10:48:00;;;;;;;7.37;2.00;;;;;;;25.41;53.61;99380.89;126064;1098;102554;-78
2022/09/16 10:50:37;;;;;;;9.00;2.00;;;;;;;25.41;53.60;99409.57;124867;1099;104341;-78
2022/09/16 10:53:30;;;;;;;7.70;1.80;;;;;;;25.27;53.28;99412.80;125206;1099;104286;-78
2022/09/16 10:56:19;;;;;;;4.17;1.83;;;;;;;25.31;53.59;99414.47;125310;1099;102342;-79
2022/09/16 10:59:14;;;;;;;4.10;1.50;;;;;;;25.47;53.26;99422.73;125733;1099;104262;-79
2022/09/16 11:02:22;;;;;;;3.77;1.63;;;;;;;25.52;52.52;99412.66;125591;1099;101736;-79
2022/09/16 11:05:29;;;;;;;;;;;;;;;;;;;;;
2022/09/16 11:08:58;;;;;;;2.37;1.37;;;;;;;25.28;52.28;99428.87;124963;1102;103690;-78
2022/09/16 11:12:27;;;;;;;3.00;1.30;;;;;;;25.05;52.37;99442.35;124812;1102;104223;-79
2022/09/16 11:15:44;;;;;;;5.27;1.83;;;;;;;24.88;52.60;99432.30;124978;1102;102385;-79
2022/09/16 11:18:40;;;;;;;1.30;1.20;;;;;;;24.89;52.98;99426.01;125390;1099;102716;-78
2022/09/16 11:22:05;;;;;;;2.23;1.23;;;;;;;24.81;52.49;99437.05;125644;1099;102810;-79
2022/09/16 11:25:25;;;;;;;3.27;1.50;;;;;;;24.73;52.64;99436.48;125615;1099;102775;-79
2022/09/16 11:28:44;;;;;;;3.37;1.60;;;;;;;24.72;52.75;99410.59;126490;1098;105455;-79
2022/09/16 11:31:50;;;;;;;;;;;;;;;;;;;;;
2022/09/16 11:35:17;;;;;;;;;;;;;;;;;;;;;
2022/09/16 11:38:06;;;;;;;;;;;;;;;;;;;;;
2022/09/16 11:41:13;;;;;;;;;;;;;;;;;;;;;
2022/09/16 11:44:14;;;;;;;3.60;1.30;;;;;;;25.58;51.79;99406.16;125453;1099;102623;-78
2022/09/16 11:47:19;;;;;;;2.70;1.53;;;;;;;25.63;51.82;99414.87;125535;1099;104191;-78
2022/09/16 11:50:28;;;;;;;3.77;2.27;;;;;;;25.64;51.24;99420.18;124959;1102;104485;-78
2022/09/16 11:53:38;;;;;;;2.77;1.80;;;;;;;25.47;51.93;99423.59;125030;1102;104769;-77
2022/09/16 11:56:44;;;;;;;6.27;1.70;;;;;;;25.34;51.63;99446.55;124583;1105;104211;-78
2022/09/16 11:59:29;;;;;;;2.87;1.90;;;;;;;25.33;51.69;99435.88;125272;1099;102792;-78
2022/09/16 12:02:38;;;;;;;3.77;1.57;;;;;;;25.38;51.51;99440.09;125589;1099;104153;-78
2022/09/16 12:05:50;;;;;;;;;;;;;;;;;;;;;
2022/09/16 12:08:33;;;;;;;1.83;1.70;;;;;;;25.23;51.82;99452.34;126394;1098;102855;-78
2022/09/16 12:11:43;;;;;;;4.30;1.77;;;;;;;25.29;51.51;99446.75;125653;1099;104320;-78
2022/09/16 12:15:02;;;;;;;1.77;1.67;;;;;;;25.34;51.21;99441.19;125525;1099;104384;-78
2022/09/16 12:18:08;;;;;;;1.83;1.60;;;;;;;25.30;51.65;99437.73;126380;1099;102217;-78
2022/09/16 12:21:10;;;;;;;4.90;1.70;;;;;;;25.28;51.20;99436.94;125622;1099;111793;-78
2022/09/16 12:24:45;;;;;;;2.13;1.90;;;;;;;25.26;50.96;99443.30;125691;1099;104252;-79
2022/09/16 12:27:36;;;;;;;2.43;1.90;;;;;;;25.25;51.14;99450.45;125535;1099;103031;-79
2022/09/16 12:30:30;;;;;;;3.73;1.80;;;;;;;25.12;51.01;99451.91;126021;1098;102320;-79
2022/09/16 12:33:30;;;;;;;2.33;1.80;;;;;;;25.07;50.86;99446.73;126595;1098;104160;-79
2022/09/16 12:36:14;;;;;;;3.60;1.83;;;;;;;25.04;51.32;99452.23;125614;1099;102391;-79
2022/09/16 12:39:27;;;;;;;3.43;2.00;;;;;;;24.95;50.92;99449.91;125647;1099;101860;-78
2022/09/16 12:46:52;;;;;;;2.97;1.80;;;;;;;24.78;50.49;99430.91;125611;1099;104510;-78
2022/09/16 12:50:20;;;;;;;1.83;1.53;;;;;;;24.80;50.84;99429.92;124936;1102;104750;-78
2022/09/16 12:53:34;;;;;;;2.10;1.90;;;;;;;24.68;50.55;99419.68;125221;1099;111361;-77
2022/09/16 12:56:34;;;;;;;;;;;;;;;;;;;;;
2022/09/16 12:59:48;;;;;;;2.67;1.63;;;;;;;24.64;50.55;99440.39;125803;1099;102427;-77
2022/09/16 13:02:47;;;;;;;4.20;2.30;;;;;;;24.62;50.82;99436.02;125610;1099;104373;-77
2022/09/16 13:05:55;;;;;;;3.67;2.00;;;;;;;24.63;50.86;99433.27;126105;1098;104169;-77
2022/09/16 13:09:37;;;;;;;;;;;;;;;;;;;;;
2022/09/16 13:16:47;;;;;;;;;;;;;;;;;;;;;